• Join FlightAware (Why Join?)
  • Login
  • US Flag 
04:54AM EST


 

Airport Tracker/Info


-or-


 

Live Flight TrackerFlight Track Log ✈ ACA831 ✈ 13-Aug-2013 ✈ CYUL - CYYZ

Flight Track Log - Related Links

Times and Time Zones

All times are in EDT time to prevent confusion due to time zone crossing. See the ACA831 flight status page for this flight to view local times or setup timezone preferences in your user account.

Time Position Orientation Groundspeed Altitude Reporting Facility
EDT Latitude Longitude Course Direction KTS MPH feet Rate Location/Type
04:41PM 45.4660 -73.7300 235° Southwest 165 190  Level FlightAware
04:41PM 45.4540 -73.7460 223° Southwest 157 181 1,500 3,300 Climbing FlightAware
04:41PM 45.4410 -73.7630 223° Southwest 188 216 2,400 2,580 Climbing FlightAware
04:42PM 45.4190 -73.7920 223° Southwest 231 266 3,700 2,880 Climbing FlightAware
04:42PM 45.4080 -73.8130 233° Southwest 246 283 4,600 3,600 Climbing FlightAware
04:42PM 45.4050 -73.8290 255° West 260 299 5,200 4,320 Climbing FlightAware
04:43PM 45.4060 -73.8820 272° West 270 311 7,500 4,320 Climbing FlightAware
04:43PM 45.4070 -73.9180 272° West 277 319 8,800 4,260 Climbing FlightAware
04:44PM 45.4080 -73.9920 271° West 286 329 11,700 3,660 Climbing FlightAware
04:44PM 45.4090 -74.0640 271° West 321 369 13,400 2,880 Climbing FlightAware
04:45PM 45.4120 -74.1360 273° West 347 399 15,000 3,660 Climbing FlightAware
04:46PM 45.4270 -74.2140 285° West 346 398 17,600 4,380 Climbing FlightAware
04:46PM 45.4430 -74.2920 286° West 331 381 20,400 3,480 Climbing FlightAware
04:47PM 45.4600 -74.3680 288° West 351 404 21,800 2,640 Climbing FlightAware
04:47PM 45.4710 -74.4420 282° West 352 405 23,400 2,640 Climbing FlightAware
04:48PM 45.4690 -74.5240 268° West 362 417 24,800 2,340 Climbing FlightAware
04:49PM 45.4590 -74.6100 261° West 368 423 26,200 2,340 Climbing FlightAware
04:49PM 45.4420 -74.6860 252° West 374 430 27,500 2,220 Climbing FlightAware
04:50PM 45.4240 -74.7750 254° West 385 443 28,800 1,740 Climbing FlightAware
04:50PM 45.4060 -74.8640 254° West 398 458 29,700 1,620 Climbing FlightAware
04:51PM 45.3890 -74.9510 254° West 406 467 30,700 2,460 Climbing FlightAware
04:51PM 45.3690 -75.0380 252° West 394 453 32,500 2,640 Climbing FlightAware
04:52PM 45.3500 -75.1240 253° West 386 444 33,800 1,200 Climbing FlightAware
04:53PM 45.3310 -75.2090 252° West 387 445 34,000 120 Climbing FlightAware
04:53PM 45.3100 -75.3060 253° West 382 440 34,000  Level FlightAware
04:54PM 45.2920 -75.3880 253° West 385 443 34,000  Level FlightAware
04:54PM 45.2720 -75.4760 252° West 388 447 34,000  Level FlightAware
04:55PM 45.2550 -75.5530 253° West 391 450 34,000  Level FlightAware
04:56PM 45.2350 -75.6440 253° West 394 453 34,000  Level FlightAware
04:56PM 45.2160 -75.7280 252° West 396 456 34,000  Level FlightAware
04:57PM 45.1950 -75.8170 252° West 398 458 34,000  Level FlightAware
04:57PM 45.1760 -75.9030 253° West 397 457 34,000  Level FlightAware
04:58PM 45.1540 -76.0000 252° West 396 456 34,000  Level FlightAware
04:59PM 45.1320 -76.0920 251° West 393 452 34,000  Level FlightAware
05:00PM 45.1050 -76.2080 252° West 394 453 34,000  Level FlightAware
05:00PM 45.0780 -76.2890 245° Southwest 393 452 34,000  Level FlightAware
05:01PM 45.0480 -76.3650 241° Southwest 392 451 34,000  Level FlightAware
05:01PM 45.0210 -76.4320 240° Southwest 393 452 34,000  Level FlightAware
05:02PM 44.9880 -76.5150 241° Southwest 393 452 34,000  Level FlightAware
05:02PM 44.9590 -76.5890 241° Southwest 393 452 34,000  Level FlightAware
05:03PM 44.9070 -76.7180 240° Southwest 392 451 34,000  Level FlightAware
05:04PM 44.8670 -76.8190 241° Southwest 391 450 34,000  Level FlightAware
05:05PM 44.8390 -76.8900 241° Southwest 391 450 34,000  Level FlightAware
05:05PM 44.8050 -76.9740 240° Southwest 391 450 34,000  Level FlightAware
05:06PM 44.7730 -77.0520 240° Southwest 389 448 34,000  Level FlightAware
05:06PM 44.7440 -77.1240 240° Southwest 388 447 34,000  Level FlightAware
05:07PM 44.7130 -77.2020 241° Southwest 387 445 34,000  Level FlightAware
05:08PM 44.6810 -77.2790 240° Southwest 387 445 34,000  Level FlightAware
05:08PM 44.6500 -77.3560 241° Southwest 385 443 34,000  Level FlightAware
05:09PM 44.6210 -77.4260 240° Southwest 384 442 34,000  Level FlightAware
05:09PM 44.5870 -77.5090 240° Southwest 382 440 34,000  Level FlightAware
05:10PM 44.5570 -77.5810 240° Southwest 381 438 34,000  Level FlightAware
05:10PM 44.5280 -77.6520 240° Southwest 380 437 34,000  Level FlightAware
05:11PM 44.5010 -77.7180 240° Southwest 381 438 34,000 -300 Level FlightAware
05:12PM 44.4640 -77.8070 240° Southwest 381 438 33,700 -1,380 Descending FlightAware
05:12PM 44.4340 -77.8790 240° Southwest 375 432 32,300 -2,700 Descending FlightAware
05:13PM 44.4030 -77.9530 240° Southwest 373 429 30,600 -2,940 Descending FlightAware
05:13PM 44.3740 -78.0240 240° Southwest 370 426 28,900 -2,760 Descending FlightAware
05:14PM 44.3450 -78.0920 239° Southwest 365 420 27,400 -2,880 Descending FlightAware
05:15PM 44.3140 -78.1670 240° Southwest 361 415 25,600 -3,120 Descending FlightAware
05:15PM 44.2840 -78.2380 239° Southwest 354 407 23,800 -2,940 Descending FlightAware
05:16PM 44.2570 -78.3060 241° Southwest 352 405 22,200 -3,120 Descending FlightAware
05:16PM 44.2330 -78.3790 245° Southwest 353 406 20,200 -3,180 Descending FlightAware
05:17PM 44.2100 -78.4490 245° Southwest 353 406 18,500 -2,880 Descending FlightAware
05:17PM 44.1870 -78.5170 245° Southwest 352 405 16,900 -2,400 Descending FlightAware
05:18PM 44.1630 -78.5860 244° Southwest 339 390 15,700 -2,880 Descending FlightAware
05:19PM 44.1360 -78.6620 244° Southwest 348 400 13,600 -3,120 Descending FlightAware
05:19PM 44.1120 -78.7330 245° Southwest 341 392 12,100 -2,520 Descending FlightAware
05:20PM 44.0880 -78.8010 244° Southwest 335 386 10,700 -1,680 Descending FlightAware
05:20PM 44.0700 -78.8550 245° Southwest 311 358 10,300 -600 Descending FlightAware
05:21PM 44.0460 -78.9240 244° Southwest 272 313 10,000 -480 Descending FlightAware
05:21PM 44.0390 -78.9440 244° Southwest 263 303 9,900 -1,080 Descending FlightAware
05:22PM 44.0250 -78.9830 243° Southwest 258 297 9,300 -1,500 Descending FlightAware
05:22PM 44.0120 -79.0220 245° Southwest 257 296 8,700 -1,560 Descending FlightAware
05:22PM 44.0010 -79.0570 246° West 257 296 8,000 -1,680 Descending FlightAware
05:23PM 43.9940 -79.1010 258° West 258 297 7,300 -1,620 Descending FlightAware
05:23PM 43.9890 -79.1330 258° West 257 296 6,800 -1,380 Descending FlightAware
05:24PM 43.9840 -79.1650 258° West 255 293 6,400 -1,380 Descending FlightAware
05:24PM 43.9780 -79.1970 255° West 255 293 5,900 -1,380 Descending FlightAware
05:24PM 43.9730 -79.2210 254° West 256 295 5,600 -1,200 Descending FlightAware
05:24PM 43.9710 -79.2290 251° West 257 296 5,500 -600 Descending FlightAware
05:24PM 43.9680 -79.2340 230° Southwest 258 297 5,500 -420 Level FlightAware
05:24PM 43.9590 -79.2470 226° Southwest 258 297 5,400 -420 Descending FlightAware
05:25PM 43.9440 -79.2720 230° Southwest 261 300 5,300 -480 Descending FlightAware
05:25PM 43.9270 -79.2970 227° Southwest 261 300 5,100 -300 Descending FlightAware
05:25PM 43.9090 -79.3210 224° Southwest 263 303 5,100 -180 Level FlightAware
05:26PM 43.8990 -79.3360 227° Southwest 251 289 5,000 -180 Descending FlightAware
05:26PM 43.8790 -79.3660 227° Southwest 222 255 5,000 120 Level FlightAware
05:26PM 43.8660 -79.3850 227° Southwest 203 234 5,100 120 Climbing FlightAware
05:27PM 43.8530 -79.4030 225° Southwest 188 216 5,100 -180 Level FlightAware
05:27PM 43.8440 -79.4160 226° Southwest 195 224 5,000 -900 Descending FlightAware
05:27PM 43.8320 -79.4350 229° Southwest 196 226 4,600 -1,200 Descending FlightAware
05:28PM 43.8190 -79.4530 225° Southwest 196 226 4,200 -1,080 Descending FlightAware
05:28PM 43.8070 -79.4710 227° Southwest 196 226 3,900 -1,080 Descending FlightAware
05:28PM 43.7910 -79.4940 226° Southwest 195 224 3,400 -1,200 Descending FlightAware
05:29PM 43.7850 -79.5030 227° Southwest 195 224 3,200 -1,020 Descending FlightAware
05:29PM 43.7720 -79.5210 225° Southwest 195 224 2,900 -900 Descending FlightAware
05:29PM 43.7630 -79.5340 226° Southwest 186 214 2,700 -900 Descending FlightAware
05:30PM 43.7520 -79.5510 228° Southwest 181 208 2,400 -1,080 Descending FlightAware
05:30PM 43.7400 -79.5680 226° Southwest 177 204 2,000 -1,080 Descending FlightAware
05:30PM 43.7300 -79.5840 229° Southwest 169 194 1,700 -900 Descending FlightAware
05:31PM 43.7190 -79.5990 225° Southwest 152 175 1,400 -900 Descending FlightAware
05:31PM 43.7090 -79.6130 225° Southwest 145 167 1,100 -780 Descending FlightAware
05:31PM 43.7010 -79.6260 230° Southwest 136 157 900 -360 Descending FlightAware
05:32PM 43.6890 -79.6420 224° Southwest 137 158 800 -180 Descending FlightAware